Time;durP1;ratioP1;P1;durP2;ratioP2;P2;SDS_P1;SDS_P2;PMS_P1;PMS_P2;Temp;Humidity;BMP_temperature;BMP_pressure;BME280_temperature;BME280_humidity;BME280_pressure;Samples;Min_cycle;Max_cycle;Signal;HPM_P1;HPM_P2
2024/04/26 00:00:24;;;;;;;7.37;6.07;;;;;;;7.07;100.00;100137.84;5545438;25;20046;-38
2024/04/26 00:02:49;;;;;;;6.57;5.57;;;;;;;7.12;100.00;100133.44;5545423;25;19993;-38
2024/04/26 00:05:14;;;;;;;6.77;5.77;;;;;;;7.11;100.00;100128.28;5536605;25;20004;-38
2024/04/26 00:07:40;;;;;;;6.60;5.90;;;;;;;7.13;100.00;100126.22;5529373;26;20000;-38
2024/04/26 00:10:05;;;;;;;7.97;5.87;;;;;;;7.05;100.00;100118.44;5530424;26;20008;-38
2024/04/26 00:12:31;;;;;;;7.05;6.13;;;;;;;7.07;100.00;100133.28;5529224;26;20051;-38
2024/04/26 00:14:56;;;;;;;6.47;5.80;;;;;;;7.08;100.00;100140.31;5529238;26;20347;-38
2024/04/26 00:17:21;;;;;;;7.30;6.23;;;;;;;7.07;100.00;100144.03;5529224;26;20310;-38
2024/04/26 00:19:47;;;;;;;8.17;7.37;;;;;;;7.09;100.00;100151.91;5529414;26;19985;-38
2024/04/26 00:22:12;;;;;;;9.53;6.47;;;;;;;7.08;100.00;100155.63;5529195;26;20418;-38
2024/04/26 00:24:41;;;;;;;7.10;6.40;;;;;;;7.00;100.00;100145.19;5529320;26;20442;-38
2024/04/26 00:27:07;;;;;;;9.27;7.45;;;;;;;7.06;100.00;100157.72;5529165;26;20356;-38
2024/04/26 00:29:33;;;;;;;9.25;8.15;;;;;;;7.04;100.00;100155.25;5530214;26;20021;-38
2024/04/26 00:31:58;;;;;;;10.10;7.53;;;;;;;7.03;100.00;100137.50;5529432;26;20000;-38
2024/04/26 00:34:23;;;;;;;9.20;7.63;;;;;;;6.94;100.00;100134.28;5528921;26;19993;-38
2024/04/26 00:36:49;;;;;;;8.23;7.43;;;;;;;6.96;100.00;100128.66;5528996;26;19989;-38
2024/04/26 00:39:14;;;;;;;8.27;6.60;;;;;;;6.99;100.00;100127.41;5528967;26;20004;-38
2024/04/26 00:41:39;;;;;;;9.63;7.83;;;;;;;6.93;100.00;100132.66;5528575;26;19993;-38
2024/04/26 00:44:10;;;;;;;9.33;7.33;;;;;;;6.89;100.00;100136.81;5528923;26;20000;-38
2024/04/26 00:46:37;;;;;;;8.80;7.93;;;;;;;6.81;100.00;100122.84;5528866;26;20378;-39
2024/04/26 00:49:02;;;;;;;9.52;7.55;;;;;;;6.94;100.00;100145.03;5528324;26;20030;-38
2024/04/26 00:51:28;;;;;;;10.00;7.90;;;;;;;6.93;100.00;100143.41;5528428;26;19993;-38
2024/04/26 00:53:55;;;;;;;8.80;7.55;;;;;;;6.88;100.00;100135.19;5528281;26;19997;-38
2024/04/26 00:56:23;;;;;;;8.60;7.65;;;;;;;6.91;100.00;100131.22;5528283;26;20124;-38
2024/04/26 00:58:50;;;;;;;8.82;7.47;;;;;;;6.86;100.00;100131.88;5528557;26;20026;-38
2024/04/26 01:01:16;;;;;;;9.20;7.38;;;;;;;6.89;100.00;100130.63;5528256;26;20448;-38
2024/04/26 01:03:41;;;;;;;7.97;7.13;;;;;;;6.90;100.00;100127.72;5528562;26;20004;-38
2024/04/26 01:06:07;;;;;;;10.23;7.93;;;;;;;6.84;100.00;100117.84;5528622;26;20026;-38
2024/04/26 01:08:32;;;;;;;8.23;7.43;;;;;;;6.84;100.00;100117.03;5528540;26;19990;-38
2024/04/26 01:10:58;;;;;;;7.47;6.67;;;;;;;6.84;100.00;100125.09;5529135;26;20547;-38
2024/04/26 01:13:23;;;;;;;8.37;7.00;;;;;;;6.88;100.00;100131.66;5528079;26;20218;-38
2024/04/26 01:15:48;;;;;;;7.47;6.67;;;;;;;6.88;100.00;100127.13;5527653;26;20214;-38
2024/04/26 01:18:15;;;;;;;7.67;6.87;;;;;;;6.88;100.00;100126.28;5527100;26;20338;-38
2024/04/26 01:20:41;;;;;;;8.63;7.45;;;;;;;6.86;100.00;100117.63;5528276;26;20299;-38
2024/04/26 01:23:07;;;;;;;7.85;7.07;;;;;;;6.91;100.00;100129.34;5528054;26;20070;-38
2024/04/26 01:25:32;;;;;;;8.65;7.47;;;;;;;6.84;100.00;100119.72;5527936;26;19989;-38
2024/04/26 01:27:57;;;;;;;7.30;6.60;;;;;;;6.84;100.00;100107.09;5527539;26;20012;-39
2024/04/26 01:30:25;;;;;;;7.07;6.10;;;;;;;6.93;100.00;100129.97;5528568;26;20001;-38
2024/04/26 01:32:50;;;;;;;7.82;6.90;;;;;;;6.91;100.00;100121.28;5527730;26;20021;-38
2024/04/26 01:35:16;;;;;;;7.50;6.80;;;;;;;6.89;100.00;100123.38;5527847;26;20004;-38
2024/04/26 01:37:41;;;;;;;8.67;7.03;;;;;;;6.87;100.00;100130.84;5527865;26;19993;-38
2024/04/26 01:40:07;;;;;;;7.85;7.05;;;;;;;6.88;100.00;100129.81;5528386;26;20551;-38
2024/04/26 01:42:32;;;;;;;7.47;6.78;;;;;;;6.88;100.00;100131.66;5527190;26;19994;-38
2024/04/26 01:44:58;;;;;;;7.27;6.53;;;;;;;6.87;100.00;100127.31;5528043;26;20008;-38
2024/04/26 01:47:23;;;;;;;7.17;6.23;;;;;;;6.85;100.00;100129.44;5527723;26;20033;-38
2024/04/26 01:49:48;;;;;;;9.90;7.40;;;;;;;6.84;100.00;100122.41;5527996;26;19993;-38
2024/04/26 01:52:14;;;;;;;7.43;6.70;;;;;;;6.83;100.00;100128.81;5527540;26;19997;-38
2024/04/26 01:54:39;;;;;;;7.63;6.93;;;;;;;6.84;100.00;100131.28;5527866;26;19991;-38
2024/04/26 01:57:04;;;;;;;7.30;6.57;;;;;;;6.83;100.00;100128.81;5527496;26;20222;-38
2024/04/26 01:59:31;;;;;;;7.63;6.93;;;;;;;6.86;100.00;100134.56;5528586;26;20300;-38
2024/04/26 02:01:56;;;;;;;7.88;7.00;;;;;;;6.83;100.00;100131.50;5527479;26;20375;-38
2024/04/26 02:04:22;;;;;;;7.87;7.07;;;;;;;6.86;100.00;100142.63;5527842;26;20001;-38
2024/04/26 02:06:47;;;;;;;8.23;7.43;;;;;;;6.84;100.00;100139.34;5528045;26;19997;-38
2024/04/26 02:09:12;;;;;;;9.60;7.30;;;;;;;6.79;100.00;100136.53;5527704;26;20407;-38
2024/04/26 02:11:37;;;;;;;9.53;7.60;;;;;;;6.80;100.00;100143.53;5527871;26;19993;-38
2024/04/26 02:14:03;;;;;;;9.50;7.33;;;;;;;6.77;100.00;100137.78;5527544;26;19997;-38
2024/04/26 02:16:28;;;;;;;9.57;7.00;;;;;;;6.77;100.00;100138.59;5527548;26;20352;-38
2024/04/26 02:18:56;;;;;;;8.60;7.70;;;;;;;6.77;100.00;100138.59;5528217;26;20068;-38
2024/04/26 02:21:21;;;;;;;8.43;7.57;;;;;;;6.78;100.00;100142.09;5527416;26;20005;-38
2024/04/26 02:23:46;;;;;;;8.63;7.53;;;;;;;6.77;100.00;100127.84;5527693;26;20062;-38
2024/04/26 02:26:21;;;;;;;10.43;8.00;;;;;;;6.74;100.00;100122.13;5527360;26;20003;-38
2024/04/26 02:28:47;;;;;;;8.48;7.40;;;;;;;6.77;100.00;100135.09;5527061;26;19997;-38
2024/04/26 02:31:13;;;;;;;8.77;7.28;;;;;;;6.75;100.00;100129.13;5527703;26;19993;-38
2024/04/26 02:33:38;;;;;;;8.07;7.18;;;;;;;6.76;100.00;100128.06;5527219;26;20008;-38
2024/04/26 02:36:08;;;;;;;8.10;7.15;;;;;;;6.78;100.00;100134.84;5527526;26;20004;-38
2024/04/26 02:38:33;;;;;;;8.07;7.28;;;;;;;6.71;100.00;100129.56;5526496;26;19994;-38
2024/04/26 02:40:59;;;;;;;8.20;7.40;;;;;;;6.80;100.00;100131.97;5527133;26;20007;-38
2024/04/26 02:43:24;;;;;;;9.10;7.20;;;;;;;6.74;100.00;100128.31;5526568;26;19993;-38
2024/04/26 02:45:49;;;;;;;8.33;7.43;;;;;;;6.75;100.00;100121.06;5528058;26;20008;-38
2024/04/26 02:48:15;;;;;;;7.57;6.87;;;;;;;6.73;100.00;100126.66;5526429;26;20038;-38
2024/04/26 02:50:40;;;;;;;10.10;8.13;;;;;;;6.73;100.00;100121.28;5526732;26;20602;-38
2024/04/26 02:53:07;;;;;;;8.00;7.20;;;;;;;6.60;100.00;100100.75;5526124;26;19994;-39
2024/04/26 02:55:32;;;;;;;8.55;7.25;;;;;;;6.69;100.00;100115.53;5526932;26;20425;-38
2024/04/26 02:57:58;;;;;;;6.70;6.10;;;;;;;6.70;100.00;100117.19;5526506;26;20008;-38
2024/04/26 03:00:24;;;;;;;6.88;6.22;;;;;;;6.74;100.00;100116.75;5526833;26;20437;-38
2024/04/26 03:02:49;;;;;;;8.40;7.22;;;;;;;6.73;100.00;100110.53;5527041;26;20069;-38
2024/04/26 03:05:15;;;;;;;7.80;7.07;;;;;;;6.73;100.00;100113.22;5526582;26;20065;-38
2024/04/26 03:07:41;;;;;;;8.33;7.53;;;;;;;6.71;100.00;100110.75;5526753;26;20013;-38
2024/04/26 03:10:07;;;;;;;7.20;6.40;;;;;;;6.73;100.00;100110.53;5526649;26;20254;-38
2024/04/26 03:12:32;;;;;;;8.32;7.53;;;;;;;6.69;100.00;100102.09;5525963;26;20065;-38
2024/04/26 03:14:58;;;;;;;7.87;6.57;;;;;;;6.74;100.00;100114.06;5526192;26;20028;-38
2024/04/26 03:17:24;;;;;;;8.13;6.20;;;;;;;6.73;100.00;100110.53;5526223;26;20210;-38
2024/04/26 03:19:49;;;;;;;7.65;6.60;;;;;;;6.74;100.00;100122.94;5526082;26;20307;-38
2024/04/26 03:22:15;;;;;;;8.35;6.70;;;;;;;6.72;100.00;100114.25;5526094;26;19994;-38
2024/04/26 03:24:41;;;;;;;;;;;;;;;6.83;100.00;100121.59;5526940;26;20001;-38
2024/04/26 03:27:06;;;;;;;10.10;7.85;;;;;;;6.70;100.00;100119.88;5525991;26;20289;-38
2024/04/26 03:29:31;;;;;;;7.90;6.40;;;;;;;6.67;100.00;100124.84;5526574;26;20005;-38
2024/04/26 03:31:57;;;;;;;8.10;6.73;;;;;;;6.69;100.00;100130.84;5526575;26;19997;-38
2024/04/26 03:34:22;;;;;;;7.60;6.87;;;;;;;6.71;100.00;100123.38;5526236;26;19993;-38
2024/04/26 03:36:47;;;;;;;7.70;6.80;;;;;;;6.69;100.00;100120.09;5525932;26;20804;-38
2024/04/26 03:39:13;;;;;;;7.97;7.17;;;;;;;6.68;100.00;100130.00;5525978;26;20001;-38
2024/04/26 03:41:38;;;;;;;8.48;7.68;;;;;;;6.67;100.00;100122.16;5529444;26;20005;-38
2024/04/26 03:44:04;;;;;;;8.55;7.00;;;;;;;6.67;100.00;100114.09;5530261;26;20027;-38
2024/04/26 03:46:29;;;;;;;7.77;6.97;;;;;;;6.68;100.00;100118.44;5529651;26;19997;-38
2024/04/26 03:48:54;;;;;;;6.63;5.93;;;;;;;6.62;100.00;100108.59;5530196;26;20005;-38
2024/04/26 03:51:20;;;;;;;6.53;5.93;;;;;;;6.68;100.00;100123.81;5529424;26;19989;-38
2024/04/26 03:53:45;;;;;;;7.97;7.17;;;;;;;6.62;100.00;100117.47;5529688;26;19986;-38
2024/04/26 03:56:11;;;;;;;7.87;6.67;;;;;;;6.66;100.00;100120.53;5529680;26;19994;-38
2024/04/26 03:58:41;;;;;;;7.90;7.10;;;;;;;6.55;100.00;100114.03;5530307;26;20004;-38
2024/04/26 04:01:06;;;;;;;7.22;6.53;;;;;;;6.60;100.00;100116.06;5529665;26;19994;-38
2024/04/26 04:03:32;;;;;;;7.80;7.00;;;;;;;6.64;100.00;100120.75;5529331;26;20001;-38
2024/04/26 04:05:57;;;;;;;8.60;6.70;;;;;;;6.65;100.00;100124.28;5529566;26;20004;-38
2024/04/26 04:08:22;;;;;;;7.85;7.15;;;;;;;6.65;100.00;100125.09;5529258;26;20306;-38
2024/04/26 04:10:48;;;;;;;7.67;6.87;;;;;;;6.65;100.00;100113.53;5529739;26;20393;-38
2024/04/26 04:13:19;;;;;;;7.45;6.72;;;;;;;6.67;100.00;100120.31;5529662;26;20387;-38
2024/04/26 04:15:45;;;;;;;7.53;6.82;;;;;;;6.60;100.00;100110.69;5529714;26;20069;-38
2024/04/26 04:18:11;;;;;;;8.33;6.93;;;;;;;6.62;100.00;100113.97;5529114;26;20005;-38
2024/04/26 04:20:37;;;;;;;7.88;7.07;;;;;;;6.58;100.00;100110.06;5529643;26;20004;-38
2024/04/26 04:23:02;;;;;;;8.38;7.35;;;;;;;6.59;100.00;100117.09;5528993;26;20005;-38
2024/04/26 04:25:27;;;;;;;7.63;6.87;;;;;;;6.61;100.00;100125.75;5529583;26;19990;-38
2024/04/26 04:27:53;;;;;;;8.73;7.13;;;;;;;6.59;100.00;100125.16;5529174;26;20758;-37
2024/04/26 04:30:18;;;;;;;8.45;7.65;;;;;;;6.60;100.00;100126.81;5529228;26;20002;-38
2024/04/26 04:32:44;;;;;;;8.33;7.53;;;;;;;6.60;100.00;100127.63;5529020;26;19993;-38
2024/04/26 04:35:09;;;;;;;7.97;7.03;;;;;;;6.62;100.00;100124.69;5529176;26;20007;-38
2024/04/26 04:37:34;;;;;;;8.90;8.00;;;;;;;6.60;100.00;100132.19;5528444;26;20064;-38
2024/04/26 04:40:00;;;;;;;7.93;7.13;;;;;;;6.58;100.00;100131.56;5528331;26;20090;-38
2024/04/26 04:42:25;;;;;;;9.47;7.23;;;;;;;6.56;100.00;100131.78;5528019;26;20415;-38
2024/04/26 04:44:50;;;;;;;8.10;7.30;;;;;;;6.55;100.00;100132.03;5528567;26;20002;-38
2024/04/26 04:47:16;;;;;;;8.43;7.20;;;;;;;6.52;100.00;100119.84;5528236;26;20164;-38
2024/04/26 04:49:41;;;;;;;7.97;7.17;;;;;;;6.51;100.00;100126.25;5528261;26;20005;-38
2024/04/26 04:52:06;;;;;;;7.60;6.90;;;;;;;6.59;100.00;100130.53;5527999;26;19993;-38
2024/04/26 04:54:34;;;;;;;9.23;7.93;;;;;;;6.53;100.00;100126.03;5528118;26;20001;-38
2024/04/26 04:56:59;;;;;;;8.18;7.15;;;;;;;6.56;100.00;100136.34;5528614;26;20004;-38
2024/04/26 04:59:24;;;;;;;7.07;6.40;;;;;;;6.59;100.00;100143.97;5529258;26;19993;-38
2024/04/26 05:01:50;;;;;;;7.73;7.03;;;;;;;6.56;100.00;100139.84;5528505;26;20005;-38
2024/04/26 05:04:15;;;;;;;7.37;6.63;;;;;;;6.58;100.00;100134.25;5528588;26;20422;-38
2024/04/26 05:06:40;;;;;;;6.80;6.10;;;;;;;6.56;100.00;100141.72;5528659;26;20001;-38
2024/04/26 05:09:06;;;;;;;7.13;6.07;;;;;;;6.58;100.00;100145.00;5528626;26;20029;-38
2024/04/26 05:11:31;;;;;;;7.13;6.43;;;;;;;6.57;100.00;100148.72;5528532;26;20000;-38
2024/04/26 05:13:56;;;;;;;7.23;6.20;;;;;;;6.58;100.00;100143.13;5528953;26;20001;-38
2024/04/26 05:16:22;;;;;;;8.07;6.70;;;;;;;6.57;100.00;100149.53;5528397;26;20478;-38
2024/04/26 05:18:47;;;;;;;6.27;5.67;;;;;;;6.58;100.00;100155.72;5528504;26;19994;-38
2024/04/26 05:21:12;;;;;;;6.43;5.83;;;;;;;6.54;100.00;100154.53;5528401;26;20039;-38
2024/04/26 05:23:38;;;;;;;6.90;5.87;;;;;;;6.49;100.00;100147.16;5528624;26;20001;-38
2024/04/26 05:26:03;;;;;;;6.97;6.20;;;;;;;6.55;100.00;100159.69;5528531;26;20001;-38
2024/04/26 05:28:28;;;;;;;6.10;5.30;;;;;;;6.55;100.00;100164.25;5528229;26;19997;-38
2024/04/26 05:30:54;;;;;;;5.60;5.10;;;;;;;6.51;100.00;100161.19;5528455;26;20000;-38
2024/04/26 05:33:19;;;;;;;5.63;5.13;;;;;;;6.54;100.00;100170.66;5528342;26;20087;-38
2024/04/26 05:35:44;;;;;;;5.60;5.00;;;;;;;6.41;100.00;100153.63;5528439;26;19993;-38
2024/04/26 05:38:10;;;;;;;5.37;4.90;;;;;;;6.43;100.00;100154.22;5527483;26;19993;-38
2024/04/26 05:40:35;;;;;;;5.90;5.30;;;;;;;6.51;100.00;100176.47;5527793;26;19997;-38
2024/04/26 05:43:00;;;;;;;5.87;5.37;;;;;;;6.52;100.00;100180.81;5527735;26;20035;-38
2024/04/26 05:45:26;;;;;;;5.97;5.40;;;;;;;6.53;100.00;100187.81;5527718;26;20024;-38
2024/04/26 05:47:52;;;;;;;6.77;5.47;;;;;;;6.51;100.00;100182.66;5527682;26;20437;-38
2024/04/26 05:50:17;;;;;;;;;;;;;;;6.65;100.00;100192.25;5528571;26;19994;-38
2024/04/26 05:52:43;;;;;;;4.95;4.53;;;;;;;6.55;100.00;100186.56;5527768;26;19931;-38
2024/04/26 05:55:08;;;;;;;5.13;4.63;;;;;;;6.47;100.00;100173.41;5528821;26;19989;-38
2024/04/26 05:57:33;;;;;;;5.20;4.70;;;;;;;6.48;100.00;100190.34;5527566;26;20056;-38
2024/04/26 05:59:59;;;;;;;5.00;4.50;;;;;;;6.49;100.00;100191.97;5528386;26;20203;-38
2024/04/26 06:02:25;;;;;;;5.53;4.82;;;;;;;6.52;100.00;100194.22;5526458;26;20310;-38
2024/04/26 06:05:00;;;;;;;4.75;4.35;;;;;;;6.45;100.00;100195.13;5527575;26;20059;-38
2024/04/26 06:07:25;;;;;;;5.45;4.93;;;;;;;6.52;100.00;100199.59;5527863;26;20403;-38
2024/04/26 06:09:50;;;;;;;4.67;4.20;;;;;;;6.56;100.00;100206.19;5527564;26;20002;-38
2024/04/26 06:12:16;;;;;;;5.53;4.87;;;;;;;6.56;100.00;100208.88;5527549;26;20453;-38
2024/04/26 06:14:41;;;;;;;5.33;4.83;;;;;;;6.55;100.00;100204.56;5528115;26;20025;-38
2024/04/26 06:17:06;;;;;;;4.60;4.20;;;;;;;6.56;100.00;100212.38;5527695;26;19997;-38
2024/04/26 06:19:33;;;;;;;5.30;4.80;;;;;;;6.52;100.00;100204.97;5528183;26;20003;-38
2024/04/26 06:22:00;;;;;;;4.90;4.43;;;;;;;6.58;100.00;100220.22;5527525;26;19997;-38
2024/04/26 06:24:25;;;;;;;5.32;4.18;;;;;;;6.59;100.00;100213.81;5527727;26;20327;-38
2024/04/26 06:26:50;;;;;;;5.63;5.07;;;;;;;6.65;100.00;100216.44;5527057;26;19993;-38
2024/04/26 06:29:16;;;;;;;5.20;4.70;;;;;;;6.65;100.00;100207.56;5495536;26;20008;-38
2024/04/26 06:31:44;;;;;;;5.87;5.07;;;;;;;6.67;100.00;100208.16;5527251;26;20004;-38
2024/04/26 06:34:10;;;;;;;5.38;4.05;;;;;;;6.69;100.00;100212.28;5527126;26;20104;-37
2024/04/26 06:36:35;;;;;;;4.70;4.30;;;;;;;6.68;100.00;100209.78;5526791;26;20391;-38
2024/04/26 06:39:00;;;;;;;4.90;4.50;;;;;;;6.77;100.00;100215.69;5527778;26;20004;-38
2024/04/26 06:41:28;;;;;;;5.30;4.78;;;;;;;6.81;100.00;100220.41;5526506;26;19997;-38
2024/04/26 06:43:53;;;;;;;6.80;4.75;;;;;;;6.88;100.00;100228.41;5527074;26;19998;-38
2024/04/26 06:46:19;;;;;;;4.88;4.45;;;;;;;6.83;100.00;100221.03;5527404;26;20470;-38
2024/04/26 06:48:44;;;;;;;6.00;5.27;;;;;;;6.89;100.00;100238.94;5527047;26;20004;-38
2024/04/26 06:51:09;;;;;;;4.77;4.37;;;;;;;6.86;100.00;100234.00;5526770;26;20787;-38
2024/04/26 06:53:35;;;;;;;4.75;4.25;;;;;;;6.88;100.00;100237.31;5526431;26;20382;-38
2024/04/26 06:56:00;;;;;;;4.73;3.97;;;;;;;6.91;100.00;100244.91;5527761;26;20005;-38
2024/04/26 06:58:25;;;;;;;4.47;3.70;;;;;;;6.92;100.00;100248.41;5527174;26;20008;-38
2024/04/26 07:00:51;;;;;;;4.03;3.63;;;;;;;6.81;100.00;100224.97;5526891;26;19997;-38
2024/04/26 07:03:18;;;;;;;4.83;4.30;;;;;;;7.01;100.00;100247.09;5526520;26;20069;-38
2024/04/26 07:05:44;;;;;;;4.35;3.95;;;;;;;7.00;100.00;100248.16;5526753;26;20505;-38
2024/04/26 07:08:09;;;;;;;5.03;3.95;;;;;;;7.05;100.00;100251.00;5526697;26;20001;-38
2024/04/26 07:10:36;;;;;;;4.70;4.28;;;;;;;7.12;100.00;100254.41;5527062;26;20002;-38
2024/04/26 07:13:01;;;;;;;5.15;3.92;;;;;;;7.15;100.00;100258.53;5526523;26;19998;-38
2024/04/26 07:15:26;;;;;;;5.07;4.47;;;;;;;7.13;100.00;100274.09;5528295;26;20007;-38
2024/04/26 07:17:52;;;;;;;5.33;4.83;;;;;;;7.18;100.00;100269.69;5497465;26;19997;-38
2024/04/26 07:20:17;;;;;;;5.17;4.57;;;;;;;7.21;100.00;100268.41;5530568;26;20001;-38
2024/04/26 07:22:42;;;;;;;5.23;4.73;;;;;;;7.16;100.00;100260.19;5530157;26;20314;-38
2024/04/26 07:25:08;;;;;;;4.90;4.40;;;;;;;7.29;100.00;100270.81;5530205;26;19994;-38
2024/04/26 07:27:33;;;;;;;5.95;4.22;;;;;;;7.39;100.00;100279.19;5530004;26;19994;-38
2024/04/26 07:29:58;;;;;;;3.90;3.60;;;;;;;7.40;100.00;100286.19;5529776;26;19997;-38
2024/04/26 07:32:24;;;;;;;4.20;3.80;;;;;;;7.43;100.00;100276.88;5529613;26;20001;-38
2024/04/26 07:34:49;;;;;;;5.33;3.90;;;;;;;7.42;100.00;100281.44;5529843;26;20008;-38
2024/04/26 07:37:14;;;;;;;4.30;3.90;;;;;;;7.38;100.00;100269.47;5530370;26;19997;-38
2024/04/26 07:39:40;;;;;;;4.50;4.07;;;;;;;7.54;100.00;100283.38;5529646;26;20001;-38
2024/04/26 07:42:07;;;;;;;4.73;4.23;;;;;;;7.60;100.00;100288.66;5529585;26;20404;-38
2024/04/26 07:44:33;;;;;;;6.00;5.00;;;;;;;7.59;100.00;100291.59;5529646;26;19993;-38
2024/04/26 07:46:58;;;;;;;4.65;3.70;;;;;;;7.62;100.00;100291.16;5529319;26;19997;-38
2024/04/26 07:49:27;;;;;;;3.97;3.60;;;;;;;7.65;100.00;100285.31;5529659;26;20352;-38
2024/04/26 07:51:53;;;;;;;3.90;3.50;;;;;;;7.66;100.00;100289.63;5529233;26;20410;-38
2024/04/26 07:54:18;;;;;;;4.13;3.72;;;;;;;7.71;100.00;100295.16;5529639;26;19998;-38
2024/04/26 07:56:44;;;;;;;3.97;3.58;;;;;;;7.69;100.00;100299.94;5529671;26;20311;-38
2024/04/26 07:59:09;;;;;;;4.57;3.83;;;;;;;7.67;100.00;100288.59;5529853;26;20442;-38
2024/04/26 08:01:35;;;;;;;5.15;3.55;;;;;;;7.72;100.00;100302.22;5529525;26;20008;-38
2024/04/26 08:04:00;;;;;;;4.18;3.78;;;;;;;7.67;100.00;100294.81;5529939;26;20004;-38
2024/04/26 08:06:26;;;;;;;4.05;3.47;;;;;;;7.71;100.00;100314.84;5529800;26;20377;-38
2024/04/26 08:08:51;;;;;;;4.87;3.70;;;;;;;7.78;100.00;100308.56;5529510;26;19993;-38
2024/04/26 08:11:16;;;;;;;4.63;3.33;;;;;;;7.76;100.00;100314.19;5530006;26;20428;-38
2024/04/26 08:13:42;;;;;;;3.67;3.35;;;;;;;7.70;100.00;100304.28;5529386;26;20049;-38
2024/04/26 08:16:08;;;;;;;4.20;3.73;;;;;;;7.80;100.00;100318.03;5529571;26;20333;-38
2024/04/26 08:18:33;;;;;;;3.83;3.53;;;;;;;7.81;100.00;100314.31;5529006;26;20444;-38
2024/04/26 08:20:59;;;;;;;4.53;3.85;;;;;;;7.89;100.00;100319.38;5529284;26;19997;-38
2024/04/26 08:23:24;;;;;;;4.17;3.60;;;;;;;7.89;100.00;100311.28;5496623;26;19989;-38
2024/04/26 08:25:49;;;;;;;5.70;3.87;;;;;;;8.07;100.00;100320.41;5496220;26;19997;-38
2024/04/26 08:28:15;;;;;;;4.67;4.27;;;;;;;8.09;100.00;100316.44;5528913;26;20318;-38
2024/04/26 08:30:40;;;;;;;4.90;4.27;;;;;;;8.27;100.00;100332.56;5528919;26;20338;-38
2024/04/26 08:33:05;;;;;;;5.13;4.72;;;;;;;8.36;100.00;100332.25;5528949;26;20214;-38
2024/04/26 08:35:32;;;;;;;4.40;3.97;;;;;;;8.44;100.00;100330.09;5529516;26;19993;-38
2024/04/26 08:37:57;;;;;;;5.30;4.38;;;;;;;8.39;100.00;100329.09;5528739;26;20008;-38
2024/04/26 08:40:23;;;;;;;6.20;4.43;;;;;;;8.40;100.00;100342.38;5529242;26;20437;-38
2024/04/26 08:42:49;;;;;;;4.93;4.38;;;;;;;8.45;100.00;100334.41;5528511;26;20345;-38
2024/04/26 08:45:17;;;;;;;6.25;4.55;;;;;;;8.48;100.00;100336.63;5528777;26;20000;-39
2024/04/26 08:47:44;;;;;;;4.63;4.18;;;;;;;8.49;100.00;100341.00;5528354;26;20005;-38
2024/04/26 08:50:10;;;;;;;5.43;3.85;;;;;;;8.66;100.00;100340.34;5528892;26;20009;-38
2024/04/26 08:52:37;;;;;;;4.93;3.97;;;;;;;8.77;100.00;100342.22;5528557;26;19998;-38
2024/04/26 08:55:03;;;;;;;6.18;4.55;;;;;;;8.77;100.00;100337.66;5528332;26;20009;-38
2024/04/26 08:57:30;;;;;;;4.88;4.38;;;;;;;8.85;100.00;100343.78;5528766;26;19989;-39
2024/04/26 09:00:04;;;;;;;4.75;4.25;;;;;;;9.01;100.00;100343.91;5529143;26;20062;-38
2024/04/26 09:02:31;;;;;;;4.18;3.78;;;;;;;9.12;100.00;100344.97;5528323;26;20348;-38
2024/04/26 09:04:57;;;;;;;4.15;3.75;;;;;;;9.02;100.00;100334.75;5528645;26;20102;-38
2024/04/26 09:07:22;;;;;;;6.60;4.13;;;;;;;9.07;100.00;100347.53;5528886;26;20385;-38
2024/04/26 09:09:48;;;;;;;4.10;3.70;;;;;;;8.87;100.00;100342.47;5528389;26;20005;-38
2024/04/26 09:12:15;;;;;;;6.00;4.03;;;;;;;8.92;100.00;100350.69;5528591;26;19989;-38
2024/04/26 09:14:40;;;;;;;4.07;3.63;;;;;;;8.88;100.00;100356.78;5528638;26;19994;-38
2024/04/26 09:17:07;;;;;;;4.93;4.00;;;;;;;8.90;100.00;100347.41;5527982;26;19994;-38
2024/04/26 09:19:33;;;;;;;4.57;3.95;;;;;;;9.30;100.00;100357.53;5528456;26;20088;-38
2024/04/26 09:21:58;;;;;;;4.13;3.70;;;;;;;9.58;100.00;100364.13;5528108;26;20434;-39
2024/04/26 09:24:24;;;;;;;4.78;3.75;;;;;;;9.78;100.00;100359.97;5528021;26;19993;-38
2024/04/26 09:26:49;;;;;;;3.60;3.30;;;;;;;9.93;100.00;100359.47;5528060;26;19997;-38
2024/04/26 09:29:15;;;;;;;4.78;3.88;;;;;;;10.02;100.00;100365.34;5528934;26;20046;-38
2024/04/26 09:31:42;;;;;;;5.43;3.40;;;;;;;10.18;100.00;100375.38;5527941;26;20004;-38
2024/04/26 09:34:10;;;;;;;3.92;3.53;;;;;;;10.10;100.00;100377.63;5528394;26;20210;-38
2024/04/26 09:36:38;;;;;;;4.55;3.60;;;;;;;10.11;100.00;100373.88;5527869;26;20004;-38
2024/04/26 09:39:04;;;;;;;3.50;3.20;;;;;;;10.05;100.00;100378.34;5526566;26;20005;-38
2024/04/26 09:41:32;;;;;;;4.28;3.35;;;;;;;10.31;100.00;100387.84;5527566;26;20449;-38
2024/04/26 09:43:57;;;;;;;3.65;3.35;;;;;;;10.38;100.00;100374.97;5527792;26;20021;-38
2024/04/26 09:46:28;;;;;;;4.43;3.45;;;;;;;10.54;100.00;100378.78;5527654;26;19990;-38
2024/04/26 09:48:55;;;;;;;4.05;3.58;;;;;;;10.78;100.00;100384.91;5528364;26;20426;-38
2024/04/26 09:51:20;;;;;;;3.45;3.15;;;;;;;10.99;100.00;100376.09;5527682;26;20001;-38
2024/04/26 09:53:46;;;;;;;3.80;3.00;;;;;;;11.16;100.00;100383.38;5527179;26;20065;-38
2024/04/26 09:56:12;;;;;;;3.17;2.65;;;;;;;11.12;100.00;100374.13;5528199;26;20005;-38
2024/04/26 09:58:37;;;;;;;4.05;3.20;;;;;;;11.14;100.00;100377.41;5527914;26;20329;-38
2024/04/26 10:01:08;;;;;;;3.47;2.63;;;;;;;10.94;100.00;100383.31;5527884;26;20021;-38
2024/04/26 10:03:37;;;;;;;4.38;3.00;;;;;;;11.04;100.00;100375.38;5528041;26;19993;-38
2024/04/26 10:06:04;;;;;;;3.70;3.20;;;;;;;11.40;100.00;100386.75;5527960;26;20004;-39
2024/04/26 10:08:34;;;;;;;3.10;2.58;;;;;;;11.50;100.00;100387.72;5527906;26;20094;-39
2024/04/26 10:11:09;;;;;;;2.78;2.25;;;;;;;11.80;100.00;100387.34;5527622;26;20009;-38
2024/04/26 10:13:45;;;;;;;3.45;2.60;;;;;;;11.83;100.00;100380.63;5528093;26;19993;-38
2024/04/26 10:16:11;;;;;;;5.05;2.50;;;;;;;11.87;100.00;100392.63;5528270;26;20046;-38
2024/04/26 10:18:38;;;;;;;3.25;2.30;;;;;;;11.93;100.00;100393.50;5528217;26;19998;-39
2024/04/26 10:21:04;;;;;;;3.30;2.35;;;;;;;11.96;100.00;100395.72;5527998;26;20341;-38
2024/04/26 10:23:29;;;;;;;3.65;2.38;;;;;;;12.13;100.00;100395.66;5527526;26;19994;-39
2024/04/26 10:26:05;;;;;;;5.97;2.17;;;;;;;12.33;100.00;100396.72;5527862;26;19993;-39
2024/04/26 10:28:31;;;;;;;3.15;2.13;;;;;;;12.42;100.00;100399.81;5528386;26;20061;-39
2024/04/26 10:30:58;;;;;;;3.47;2.15;;;;;;;12.40;100.00;100393.00;5527531;26;20429;-38
2024/04/26 10:33:23;;;;;;;3.13;2.30;;;;;;;12.50;100.00;100383.09;5526742;26;20005;-38
2024/04/26 10:35:53;;;;;;;;;;;;;;;12.61;100.00;100398.38;5528000;26;20328;-38
2024/04/26 10:38:18;;;;;;;4.55;2.47;;;;;;;12.26;100.00;100398.00;5527046;26;19931;-38
2024/04/26 10:40:45;;;;;;;3.83;2.90;;;;;;;12.10;100.00;100400.53;5527109;26;19993;-38
2024/04/26 10:43:10;;;;;;;3.83;2.42;;;;;;;11.90;100.00;100396.69;5526940;26;19993;-38
2024/04/26 10:45:36;;;;;;;3.95;2.80;;;;;;;11.90;100.00;100399.41;5527033;26;20073;-38
2024/04/26 10:48:01;;;;;;;3.33;2.60;;;;;;;11.93;100.00;100398.91;5526873;26;20009;-38
2024/04/26 10:50:27;;;;;;;3.17;2.35;;;;;;;11.97;100.00;100403.59;5527258;26;19993;-38
2024/04/26 10:52:52;;;;;;;4.03;2.27;;;;;;;11.79;100.00;100401.13;5526543;26;20001;-38
2024/04/26 10:55:18;;;;;;;2.25;2.00;;;;;;;11.80;100.00;100395.47;5526494;26;20214;-38
2024/04/26 10:57:54;;;;;;;3.58;2.33;;;;;;;11.77;100.00;100387.03;5526747;26;20007;-39
2024/04/26 11:00:19;;;;;;;2.88;2.30;;;;;;;11.63;100.00;100402.00;5526973;26;20001;-38
2024/04/26 11:02:45;;;;;;;3.13;2.67;;;;;;;11.59;100.00;100412.50;5526355;26;20333;-38
2024/04/26 11:05:12;;;;;;;3.28;2.30;;;;;;;11.68;100.00;100385.81;5526566;26;20253;-38
2024/04/26 11:07:38;;;;;;;5.60;2.47;;;;;;;11.76;100.00;100391.63;5526379;26;20018;-38
2024/04/26 11:10:05;;;;;;;4.10;2.50;;;;;;;11.59;100.00;100410.59;5526759;26;20466;-38
2024/04/26 11:12:43;;;;;;;3.05;2.42;;;;;;;11.48;100.00;100399.88;5525923;26;19989;-38
2024/04/26 11:15:09;;;;;;;5.53;2.80;;;;;;;11.50;100.00;100409.38;5526705;26;19993;-38
2024/04/26 11:17:34;;;;;;;5.53;2.67;;;;;;;11.41;100.00;100410.84;5525937;26;20000;-38